createdAt,value
2022-10-01T00:02:23.285Z,12.90
2022-10-01T00:07:21.632Z,12.90
2022-10-01T00:12:21.122Z,12.90
2022-10-01T00:17:19.356Z,12.90
2022-10-01T00:22:18.974Z,12.80
2022-10-01T00:27:17.077Z,12.80
2022-10-01T00:32:16.870Z,12.80
2022-10-01T00:37:15.038Z,12.80
2022-10-01T00:42:22.067Z,12.80
2022-10-01T00:47:28.648Z,12.80
2022-10-01T00:52:31.685Z,12.80
2022-10-01T00:57:30.992Z,12.80
2022-10-01T01:02:30.596Z,12.70
2022-10-01T01:07:29.777Z,12.70
2022-10-01T01:12:40.485Z,12.70
2022-10-01T01:17:47.444Z,12.80
2022-10-01T01:22:57.963Z,12.70
2022-10-01T01:28:11.529Z,12.70
2022-10-01T01:33:16.406Z,12.70
2022-10-01T01:38:18.707Z,12.70
2022-10-01T01:43:21.952Z,12.70
2022-10-01T01:48:20.053Z,12.70
2022-10-01T01:53:20.192Z,12.70
2022-10-01T01:58:20.954Z,12.70
2022-10-01T02:03:21.234Z,12.70
2022-10-01T02:08:30.592Z,12.70
2022-10-01T02:13:41.996Z,12.80
2022-10-01T02:18:48.138Z,12.80
2022-10-01T02:23:53.367Z,12.80
2022-10-01T02:28:57.391Z,12.80
2022-10-01T02:33:57.058Z,12.80
2022-10-01T02:38:57.690Z,12.80
2022-10-01T02:44:00.202Z,12.80
2022-10-01T02:48:59.621Z,12.80
2022-10-01T02:54:04.350Z,12.80
2022-10-01T02:59:03.909Z,12.80
2022-10-01T03:04:02.363Z,12.70
2022-10-01T03:09:00.769Z,12.80
2022-10-01T03:13:58.992Z,12.80
2022-10-01T03:18:58.481Z,12.80
2022-10-01T03:23:56.678Z,12.80
2022-10-01T03:28:54.844Z,12.80
2022-10-01T03:33:53.004Z,12.80
2022-10-01T03:38:52.493Z,12.80
2022-10-01T03:43:50.680Z,12.90
2022-10-01T03:48:49.405Z,12.90
2022-10-01T03:53:47.980Z,12.90
2022-10-01T03:58:47.453Z,12.90
2022-10-01T04:03:45.615Z,12.90
2022-10-01T04:08:43.745Z,12.90
2022-10-01T04:13:41.906Z,12.90
2022-10-01T04:18:41.472Z,12.90
2022-10-01T04:23:39.635Z,12.90
2022-10-01T04:28:37.855Z,12.90
2022-10-01T04:33:36.137Z,13.00
2022-10-01T04:38:35.928Z,13.00
2022-10-01T04:43:34.076Z,13.00
2022-10-01T04:48:32.227Z,13.00
2022-10-01T04:53:30.581Z,13.00
2022-10-01T04:58:30.417Z,13.00
2022-10-01T05:03:28.872Z,12.90
2022-10-01T05:08:27.158Z,13.00
2022-10-01T05:13:30.284Z,13.00
2022-10-01T05:18:29.997Z,13.00
2022-10-01T05:23:28.123Z,13.00
2022-10-01T05:28:28.084Z,13.00
2022-10-01T05:33:26.782Z,13.00
2022-10-01T05:38:26.632Z,12.90
2022-10-01T05:43:27.106Z,13.00
2022-10-01T05:48:25.250Z,13.00
2022-10-01T05:53:23.624Z,12.90
2022-10-01T05:58:23.107Z,12.90
2022-10-01T06:03:21.303Z,12.90
2022-10-01T06:08:19.557Z,12.90
2022-10-01T06:13:17.868Z,12.90
2022-10-01T06:18:17.534Z,12.90
2022-10-01T06:23:16.461Z,12.90
2022-10-01T06:28:15.641Z,12.90
2022-10-01T06:33:15.488Z,12.90
2022-10-01T06:38:16.307Z,12.90
2022-10-01T06:43:14.524Z,12.90
2022-10-01T06:48:15.328Z,12.90
2022-10-01T06:53:17.318Z,13.00
2022-10-01T06:58:17.876Z,12.90
2022-10-01T07:03:18.890Z,12.90
2022-10-01T07:08:18.900Z,13.00
2022-10-01T07:13:20.315Z,12.90
2022-10-01T07:18:18.524Z,12.90
2022-10-01T07:23:18.750Z,13.00
2022-10-01T07:28:18.756Z,13.00
2022-10-01T07:33:19.886Z,13.00
2022-10-01T07:38:19.382Z,13.00
2022-10-01T07:43:17.660Z,13.00
2022-10-01T07:48:16.033Z,13.10
2022-10-01T07:53:14.382Z,13.00
2022-10-01T07:58:14.367Z,13.10
2022-10-01T08:03:12.735Z,13.10
2022-10-01T08:08:11.185Z,13.20
2022-10-01T08:13:15.468Z,13.20
2022-10-01T08:18:14.463Z,13.20
2022-10-01T08:23:15.052Z,13.20
2022-10-01T08:28:16.344Z,13.20
2022-10-01T08:33:15.329Z,13.30
2022-10-01T08:38:14.441Z,13.30
2022-10-01T08:43:26.876Z,13.30
2022-10-01T08:48:32.719Z,13.30
2022-10-01T08:53:35.080Z,13.30
2022-10-01T08:58:45.170Z,13.40
2022-10-01T09:03:43.483Z,13.40
2022-10-01T09:08:55.453Z,13.40
2022-10-01T09:14:15.022Z,13.40
2022-10-01T09:19:29.784Z,13.50
2022-10-01T09:24:40.612Z,13.50
2022-10-01T09:29:44.216Z,13.50
2022-10-01T09:34:45.687Z,13.50
2022-10-01T09:39:58.567Z,13.50
2022-10-01T09:44:58.776Z,13.60
2022-10-01T09:49:59.690Z,13.50
2022-10-01T09:55:00.904Z,13.60
2022-10-01T10:00:07.641Z,13.60
2022-10-01T10:05:07.808Z,13.60
2022-10-01T10:10:23.257Z,13.70
2022-10-01T10:15:26.521Z,13.70
2022-10-01T10:20:30.526Z,13.80
2022-10-01T10:25:28.811Z,13.80
2022-10-01T10:30:28.452Z,13.80
2022-10-01T10:35:27.353Z,13.90
2022-10-01T10:40:29.789Z,14.00
2022-10-01T10:45:34.110Z,14.00
2022-10-01T10:50:36.660Z,14.10
2022-10-01T10:55:34.908Z,14.20
2022-10-01T11:00:44.300Z,14.30
2022-10-01T11:05:44.514Z,14.40
2022-10-01T11:10:51.407Z,14.50
2022-10-01T11:16:09.852Z,14.60
2022-10-01T11:21:36.481Z,14.70
2022-10-01T11:26:43.193Z,14.90
2022-10-01T11:31:53.724Z,15.00
2022-10-01T11:37:02.512Z,15.20
2022-10-01T11:42:03.906Z,15.30
2022-10-01T11:47:08.685Z,15.50
2022-10-01T11:52:15.239Z,15.70
2022-10-01T11:57:33.290Z,16.00
2022-10-01T12:02:39.463Z,16.20
2022-10-01T12:07:43.164Z,16.50
2022-10-01T12:12:46.656Z,16.70
2022-10-01T12:17:52.203Z,16.90
2022-10-01T12:22:51.775Z,17.00
2022-10-01T12:27:59.461Z,17.20
2022-10-01T12:33:13.773Z,17.40
2022-10-01T12:38:22.639Z,17.50
2022-10-01T12:43:51.178Z,17.70
2022-10-01T12:48:56.778Z,17.80
2022-10-01T12:54:07.261Z,18.00
2022-10-01T12:59:31.901Z,18.10
2022-10-01T13:05:06.280Z,18.20
2022-10-01T13:10:15.837Z,18.40
2022-10-01T13:15:17.599Z,18.50
2022-10-01T13:20:24.604Z,18.60
2022-10-01T13:25:36.259Z,18.80
2022-10-01T13:30:46.315Z,18.90
2022-10-01T13:35:55.750Z,19.00
2022-10-01T13:41:00.123Z,19.10
2022-10-01T13:46:07.851Z,19.10
2022-10-01T13:51:10.764Z,19.10
2022-10-01T13:56:11.752Z,19.10
2022-10-01T14:01:29.027Z,19.10
2022-10-01T14:06:32.272Z,19.10
2022-10-01T14:11:51.361Z,19.00
2022-10-01T14:16:50.077Z,18.80
2022-10-01T14:22:05.789Z,18.50
2022-10-01T14:27:10.398Z,18.20
2022-10-01T14:32:22.998Z,17.80
2022-10-01T14:37:23.465Z,17.60
2022-10-01T14:42:21.705Z,17.40
2022-10-01T14:47:22.804Z,17.20
2022-10-01T14:52:25.595Z,17.20
2022-10-01T14:57:30.291Z,17.30
2022-10-01T15:02:29.600Z,17.40
2022-10-01T15:07:36.279Z,17.50
2022-10-01T15:12:41.853Z,17.50
2022-10-01T15:17:43.545Z,17.60
2022-10-01T15:22:45.493Z,17.60
2022-10-01T15:27:43.684Z,17.50
2022-10-01T15:32:42.451Z,17.50
2022-10-01T15:37:45.694Z,17.50
2022-10-01T15:43:23.622Z,17.40
2022-10-01T15:48:30.613Z,17.40
2022-10-01T15:53:31.009Z,17.40
2022-10-01T15:58:31.852Z,17.30
2022-10-01T16:03:33.230Z,17.20
2022-10-01T16:08:35.342Z,17.20
2022-10-01T16:13:43.242Z,17.00
2022-10-01T16:18:41.742Z,17.00
2022-10-01T16:23:44.430Z,16.80
2022-10-01T16:28:43.122Z,16.70
2022-10-01T16:33:41.395Z,16.60
2022-10-01T16:38:39.612Z,16.50
2022-10-01T16:43:39.608Z,16.40
2022-10-01T16:48:37.801Z,16.30
2022-10-01T16:53:36.342Z,16.20
2022-10-01T16:58:34.510Z,16.20
2022-10-01T17:03:34.345Z,16.20
2022-10-01T17:08:32.548Z,16.10
2022-10-01T17:13:33.207Z,16.10
2022-10-01T17:18:31.391Z,16.00
2022-10-01T17:23:31.079Z,16.00
2022-10-01T17:28:29.637Z,16.00
2022-10-01T17:33:28.384Z,16.00
2022-10-01T17:38:26.658Z,15.90
2022-10-01T17:43:26.268Z,15.90
2022-10-01T17:48:24.658Z,15.90
2022-10-01T17:53:22.855Z,15.80
2022-10-01T17:58:21.182Z,15.80
2022-10-01T18:03:20.737Z,15.80
2022-10-01T18:08:21.763Z,15.90
2022-10-01T18:13:27.618Z,15.80
2022-10-01T18:23:45.503Z,15.70
2022-10-01T18:28:43.706Z,15.60
2022-10-01T18:33:46.822Z,15.60
2022-10-01T18:38:48.807Z,15.60
2022-10-01T18:43:47.101Z,15.60
2022-10-01T18:49:01.505Z,15.60
2022-10-01T18:54:15.741Z,15.60
2022-10-01T18:59:34.255Z,15.50
2022-10-01T19:04:55.082Z,15.50
2022-10-01T19:10:03.757Z,15.40
2022-10-01T19:15:13.736Z,15.40
2022-10-01T19:20:23.563Z,15.30
2022-10-01T19:25:27.512Z,15.30
2022-10-01T19:30:25.812Z,15.20
2022-10-01T19:35:30.842Z,15.10
2022-10-01T19:40:34.335Z,15.10
2022-10-01T19:45:43.797Z,15.00
2022-10-01T19:50:48.772Z,15.00
2022-10-01T19:55:48.688Z,14.90
2022-10-01T20:00:49.310Z,14.90
2022-10-01T20:05:53.344Z,14.90
2022-10-01T20:10:55.634Z,14.80
2022-10-01T20:16:00.852Z,14.80
2022-10-01T20:21:16.909Z,14.70
2022-10-01T20:26:26.550Z,14.70
2022-10-01T20:31:31.768Z,14.60
2022-10-01T20:36:40.703Z,14.60
2022-10-01T20:41:45.241Z,14.60
2022-10-01T20:46:47.840Z,14.60
2022-10-01T20:51:54.835Z,14.50
2022-10-01T20:57:05.008Z,14.50
2022-10-01T21:02:14.402Z,14.50
2022-10-01T21:07:28.121Z,14.40
2022-10-01T21:12:34.884Z,14.50
2022-10-01T21:17:42.122Z,14.40
2022-10-01T21:22:55.484Z,14.30
2022-10-01T21:28:12.477Z,14.30
2022-10-01T21:33:20.549Z,14.30
2022-10-01T21:38:29.444Z,14.30
2022-10-01T21:43:43.570Z,14.20
2022-10-01T21:48:53.638Z,14.20
2022-10-01T21:54:27.702Z,14.10
2022-10-01T21:59:53.100Z,14.10
2022-10-01T22:04:57.100Z,14.10
2022-10-01T22:10:09.120Z,14.10
2022-10-01T22:15:21.154Z,14.00
2022-10-01T22:20:22.871Z,14.00
2022-10-01T22:25:22.620Z,14.00
2022-10-01T22:30:22.872Z,14.00
2022-10-01T22:35:27.092Z,14.00
2022-10-01T22:40:31.068Z,14.00
2022-10-01T22:45:43.787Z,14.00
2022-10-01T22:50:52.471Z,13.90
2022-10-01T22:55:54.871Z,13.90
2022-10-01T23:01:05.661Z,13.90
2022-10-01T23:06:11.631Z,13.90
2022-10-01T23:11:21.967Z,13.90
2022-10-01T23:16:30.832Z,13.90
2022-10-01T23:21:36.517Z,13.90
2022-10-01T23:26:45.472Z,13.90
2022-10-01T23:31:56.015Z,14.00
2022-10-01T23:37:02.075Z,14.00
2022-10-01T23:42:05.243Z,14.00
2022-10-01T23:47:10.049Z,14.00
2022-10-01T23:52:15.805Z,14.00
2022-10-01T23:57:21.618Z,13.90
